createdAt,value
2019-03-09T00:00:54.999Z,23.30
2019-03-09T00:03:25.048Z,23.23
2019-03-09T00:05:54.949Z,23.33
2019-03-09T00:08:25.020Z,20.57
2019-03-09T00:10:55.167Z,22.43
2019-03-09T00:13:25.191Z,20.60
2019-03-09T00:15:55.321Z,19.07
2019-03-09T00:18:25.293Z,22.43
2019-03-09T00:20:55.322Z,19.50
2019-03-09T00:23:59.448Z,20.53
2019-03-09T00:26:37.332Z,22.00
2019-03-09T00:29:11.534Z,20.47
2019-03-09T00:31:49.245Z,18.90
2019-03-09T00:34:19.141Z,17.20
2019-03-09T00:36:49.078Z,20.33
2019-03-09T00:39:19.183Z,17.93
2019-03-09T00:41:49.338Z,16.27
2019-03-09T00:44:19.487Z,18.57
2019-03-09T00:46:49.587Z,18.60
2019-03-09T00:49:19.727Z,18.73
2019-03-09T00:51:49.799Z,16.87
2019-03-09T00:54:19.845Z,16.70
2019-03-09T00:56:49.991Z,16.23
2019-03-09T00:59:19.976Z,17.87
2019-03-09T01:01:50.175Z,16.57
2019-03-09T01:04:20.119Z,17.80
2019-03-09T01:06:50.152Z,15.03
2019-03-09T01:09:21.603Z,15.00
2019-03-09T01:11:51.594Z,17.00
2019-03-09T01:14:21.709Z,12.97
2019-03-09T01:16:51.978Z,14.70
2019-03-09T01:19:21.944Z,17.73
2019-03-09T01:21:51.991Z,16.87
2019-03-09T01:24:21.994Z,14.27
2019-03-09T01:26:51.987Z,15.10
2019-03-09T01:29:21.925Z,14.20
2019-03-09T01:31:51.921Z,11.93
2019-03-09T01:34:22.062Z,12.97
2019-03-09T01:36:52.049Z,11.73
2019-03-09T01:39:22.018Z,11.73
2019-03-09T01:41:52.103Z,13.17
2019-03-09T01:44:22.076Z,12.00
2019-03-09T01:46:52.171Z,16.43
2019-03-09T01:49:22.261Z,13.80
2019-03-09T01:51:52.202Z,11.10
2019-03-09T01:54:22.252Z,11.77
2019-03-09T01:56:52.385Z,10.40
2019-03-09T01:59:22.414Z,14.00
2019-03-09T02:01:52.515Z,11.67
2019-03-09T02:04:22.544Z,9.80
2019-03-09T02:06:52.470Z,11.07
2019-03-09T02:09:22.641Z,13.87
2019-03-09T02:11:52.657Z,10.93
2019-03-09T02:14:22.684Z,9.30
2019-03-09T02:16:52.689Z,11.77
2019-03-09T02:19:22.692Z,10.87
2019-03-09T02:21:52.756Z,8.63
2019-03-09T02:24:22.760Z,9.87
2019-03-09T02:26:52.691Z,10.47
2019-03-09T02:29:22.771Z,8.77
2019-03-09T02:31:52.977Z,9.63
2019-03-09T02:34:22.873Z,8.10
2019-03-09T02:36:52.808Z,12.13
2019-03-09T02:39:40.211Z,9.67
2019-03-09T02:42:10.146Z,10.57
2019-03-09T02:44:40.168Z,10.17
2019-03-09T02:47:10.319Z,8.93
2019-03-09T02:49:40.204Z,10.97
2019-03-09T02:52:10.139Z,10.03
2019-03-09T02:54:40.120Z,9.03
2019-03-09T02:57:10.262Z,8.77
2019-03-09T02:59:40.239Z,9.07
2019-03-09T03:02:32.908Z,7.87
2019-03-09T03:05:02.826Z,8.60
2019-03-09T03:07:32.911Z,7.97
2019-03-09T03:10:02.992Z,7.43
2019-03-09T03:12:33.128Z,6.87
2019-03-09T03:15:03.240Z,7.63
2019-03-09T03:17:33.300Z,7.70
2019-03-09T03:20:03.406Z,9.10
2019-03-09T03:22:33.310Z,7.60
2019-03-09T03:25:03.229Z,7.17
2019-03-09T03:27:33.262Z,7.60
2019-03-09T03:30:03.311Z,8.60
2019-03-09T03:32:35.919Z,8.87
2019-03-09T03:35:06.771Z,8.23
2019-03-09T03:37:36.745Z,7.17
2019-03-09T03:40:07.406Z,8.60
2019-03-09T03:42:37.506Z,11.57
2019-03-09T03:45:07.629Z,7.40
2019-03-09T03:47:37.732Z,8.33
2019-03-09T03:50:07.753Z,7.60
2019-03-09T03:52:37.881Z,7.97
2019-03-09T03:55:07.915Z,7.37
2019-03-09T03:57:38.199Z,7.93
2019-03-09T04:00:09.116Z,7.63
2019-03-09T04:02:39.187Z,8.20
2019-03-09T04:05:09.305Z,6.13
2019-03-09T04:07:40.437Z,11.30
2019-03-09T04:10:11.369Z,6.80
2019-03-09T04:12:41.877Z,8.67
2019-03-09T04:15:12.659Z,8.30
2019-03-09T04:17:42.628Z,5.80
2019-03-09T04:20:13.339Z,7.13
2019-03-09T04:22:43.304Z,7.33
2019-03-09T04:25:13.421Z,8.23
2019-03-09T04:27:43.402Z,6.67
2019-03-09T04:30:13.813Z,5.23
2019-03-09T04:32:43.823Z,8.57
2019-03-09T04:35:13.914Z,7.10
2019-03-09T04:37:43.888Z,8.00
2019-03-09T04:40:14.122Z,8.13
2019-03-09T04:42:44.228Z,8.37
2019-03-09T04:45:14.556Z,9.67
2019-03-09T04:47:44.583Z,7.87
2019-03-09T04:50:14.841Z,7.23
2019-03-09T04:52:44.721Z,7.57
2019-03-09T04:55:14.999Z,7.47
2019-03-09T04:57:45.010Z,8.63
2019-03-09T05:00:15.912Z,6.73
2019-03-09T05:02:45.902Z,10.13
2019-03-09T05:05:16.029Z,8.80
2019-03-09T05:08:18.156Z,9.07
2019-03-09T05:11:04.121Z,7.00
2019-03-09T05:13:43.495Z,8.83
2019-03-09T05:16:13.490Z,10.50
2019-03-09T05:18:43.327Z,6.20
2019-03-09T05:21:13.344Z,7.73
2019-03-09T05:23:43.335Z,6.20
2019-03-09T05:26:13.439Z,6.70
2019-03-09T05:28:43.511Z,8.30
2019-03-09T05:31:13.420Z,6.63
2019-03-09T05:33:43.391Z,6.83
2019-03-09T05:36:13.409Z,8.23
2019-03-09T05:38:43.499Z,7.70
2019-03-09T05:41:13.439Z,6.97
2019-03-09T05:43:43.587Z,6.20
2019-03-09T05:46:13.553Z,6.07
2019-03-09T05:48:43.420Z,7.53
2019-03-09T05:51:13.457Z,5.47
2019-03-09T05:53:43.431Z,7.27
2019-03-09T05:56:13.385Z,6.57
2019-03-09T05:58:43.558Z,6.43
2019-03-09T06:01:13.616Z,6.97
2019-03-09T06:03:43.550Z,9.43
2019-03-09T06:06:15.643Z,9.17
2019-03-09T06:08:46.243Z,7.07
2019-03-09T06:11:16.171Z,9.20
2019-03-09T06:13:46.270Z,6.10
2019-03-09T06:16:16.346Z,9.00
2019-03-09T06:18:46.271Z,8.63
2019-03-09T06:21:16.348Z,8.70
2019-03-09T06:23:46.283Z,7.50
2019-03-09T06:26:16.249Z,8.27
2019-03-09T06:28:46.310Z,11.37
2019-03-09T06:31:35.304Z,7.37
2019-03-09T06:34:05.410Z,8.73
2019-03-09T06:36:57.528Z,9.93
2019-03-09T06:39:48.485Z,7.87
2019-03-09T06:42:31.298Z,8.43
2019-03-09T06:45:01.366Z,8.17
2019-03-09T06:47:31.335Z,7.80
2019-03-09T06:50:01.288Z,7.43
2019-03-09T06:52:31.424Z,7.93
2019-03-09T06:55:01.296Z,8.00
2019-03-09T06:57:31.231Z,9.53
2019-03-09T07:00:01.189Z,6.37
2019-03-09T07:02:31.249Z,8.43
2019-03-09T07:05:01.191Z,8.20
2019-03-09T07:07:31.133Z,7.30
2019-03-09T07:10:01.098Z,5.83
2019-03-09T07:12:31.069Z,7.33
2019-03-09T07:15:24.100Z,7.73
2019-03-09T07:17:56.632Z,8.93
2019-03-09T07:20:26.645Z,7.13
2019-03-09T07:22:56.665Z,7.47
2019-03-09T07:25:26.581Z,10.20
2019-03-09T07:28:04.584Z,8.20
2019-03-09T07:30:34.722Z,8.77
2019-03-09T07:33:05.136Z,8.17
2019-03-09T07:35:35.246Z,9.80
2019-03-09T07:38:05.406Z,8.83
2019-03-09T07:40:35.623Z,7.50
2019-03-09T07:43:05.730Z,6.77
2019-03-09T07:45:35.921Z,6.77
2019-03-09T07:48:06.091Z,8.80
2019-03-09T07:50:36.114Z,9.30
2019-03-09T07:53:06.188Z,6.80
2019-03-09T07:55:36.189Z,7.63
2019-03-09T07:58:07.365Z,6.93
2019-03-09T08:00:37.453Z,8.77
2019-03-09T08:03:07.446Z,9.60
2019-03-09T08:05:37.589Z,10.63
2019-03-09T08:08:07.657Z,7.43
2019-03-09T08:10:38.803Z,9.37
2019-03-09T08:13:08.957Z,9.37
2019-03-09T08:15:38.847Z,11.37
2019-03-09T08:18:08.912Z,6.23
2019-03-09T08:20:39.022Z,6.37
2019-03-09T08:23:09.224Z,7.67
2019-03-09T08:25:39.268Z,9.20
2019-03-09T08:28:09.312Z,6.93
2019-03-09T08:30:39.749Z,7.10
2019-03-09T08:33:09.851Z,7.00
2019-03-09T08:35:39.821Z,6.57
2019-03-09T08:38:09.802Z,10.00
2019-03-09T08:40:39.844Z,5.87
2019-03-09T08:43:09.866Z,9.03
2019-03-09T08:45:39.867Z,7.87
2019-03-09T08:48:09.989Z,5.23
2019-03-09T08:50:40.040Z,5.60
2019-03-09T08:53:10.056Z,5.83
2019-03-09T08:55:39.972Z,6.70
2019-03-09T08:58:10.063Z,5.57
2019-03-09T09:00:40.217Z,6.07
2019-03-09T09:03:10.204Z,6.47
2019-03-09T09:05:40.319Z,5.20
2019-03-09T09:08:10.194Z,6.20
2019-03-09T09:10:40.342Z,7.67
2019-03-09T09:13:10.311Z,5.67
2019-03-09T09:15:40.204Z,4.83
2019-03-09T09:18:10.249Z,5.77
2019-03-09T09:20:40.235Z,5.50
2019-03-09T09:23:10.288Z,5.73
2019-03-09T09:25:40.231Z,5.63
2019-03-09T09:28:10.298Z,4.10
2019-03-09T09:30:40.332Z,5.87
2019-03-09T09:33:10.382Z,6.77
2019-03-09T09:35:40.424Z,5.17
2019-03-09T09:38:10.532Z,4.40
2019-03-09T09:40:40.661Z,4.13
2019-03-09T09:43:10.745Z,4.70
2019-03-09T09:45:40.978Z,7.27
2019-03-09T09:48:11.082Z,6.73
2019-03-09T09:50:40.997Z,6.57
2019-03-09T09:53:11.223Z,9.13
2019-03-09T09:55:41.301Z,9.60
2019-03-09T09:58:11.341Z,10.13
2019-03-09T10:00:41.359Z,10.27
2019-03-09T10:03:11.329Z,13.13
2019-03-09T10:05:41.476Z,11.30
2019-03-09T10:08:11.383Z,12.37
2019-03-09T10:10:41.389Z,12.00
2019-03-09T10:13:11.371Z,15.43
2019-03-09T10:15:41.401Z,14.10
2019-03-09T10:18:11.533Z,12.33
2019-03-09T10:20:41.560Z,14.40
2019-03-09T10:23:11.631Z,15.13
2019-03-09T10:25:41.686Z,13.80
2019-03-09T10:28:11.652Z,14.83
2019-03-09T10:30:41.817Z,15.90
2019-03-09T10:33:11.742Z,13.17
2019-03-09T10:35:41.753Z,13.20
2019-03-09T10:38:11.769Z,17.37
2019-03-09T10:40:41.822Z,12.10
2019-03-09T10:43:11.790Z,9.97
2019-03-09T10:45:41.767Z,16.80
2019-03-09T10:48:11.807Z,14.07
2019-03-09T10:50:41.833Z,20.67
2019-03-09T10:53:11.841Z,30.50
2019-03-09T10:55:42.596Z,30.00
2019-03-09T10:58:12.902Z,29.47
2019-03-09T11:00:42.942Z,27.33
2019-03-09T11:03:13.038Z,25.47
2019-03-09T11:05:43.109Z,25.00
2019-03-09T11:08:13.314Z,24.40
2019-03-09T11:10:43.326Z,25.80
2019-03-09T11:13:13.244Z,27.93
2019-03-09T11:15:43.153Z,24.83
2019-03-09T11:18:13.214Z,23.20
2019-03-09T11:20:43.230Z,24.93
2019-03-09T11:23:13.325Z,20.50
2019-03-09T11:25:43.317Z,21.67
2019-03-09T11:28:14.462Z,17.00
2019-03-09T11:30:44.535Z,21.10
2019-03-09T11:33:14.553Z,18.50
2019-03-09T11:35:44.663Z,18.33
2019-03-09T11:38:14.632Z,20.90
2019-03-09T11:40:44.729Z,18.23
2019-03-09T11:43:14.664Z,21.47
2019-03-09T11:45:44.699Z,20.80
2019-03-09T11:48:14.718Z,18.47
2019-03-09T11:50:44.662Z,17.37
2019-03-09T11:53:15.605Z,16.93
2019-03-09T11:55:45.774Z,18.07
2019-03-09T11:58:15.690Z,17.03
2019-03-09T12:00:46.401Z,14.17
2019-03-09T12:03:16.473Z,15.73
2019-03-09T12:05:46.684Z,11.77
2019-03-09T12:08:16.681Z,14.67
2019-03-09T12:10:46.843Z,15.70
2019-03-09T12:13:16.987Z,12.57
2019-03-09T12:15:46.967Z,9.97
2019-03-09T12:18:16.950Z,10.13
2019-03-09T12:20:47.088Z,11.27
2019-03-09T12:23:22.275Z,13.13
2019-03-09T12:25:52.574Z,13.93
2019-03-09T12:28:22.492Z,12.37
2019-03-09T12:30:52.948Z,15.20
2019-03-09T12:33:23.006Z,13.30
2019-03-09T12:35:53.156Z,12.33
2019-03-09T12:38:23.146Z,10.37
2019-03-09T12:40:53.224Z,12.17
2019-03-09T12:43:23.331Z,9.17
2019-03-09T12:45:53.364Z,9.87
2019-03-09T12:48:23.351Z,11.93
2019-03-09T12:50:53.407Z,10.00
2019-03-09T12:53:23.515Z,12.30
2019-03-09T12:55:53.620Z,9.13
2019-03-09T12:58:23.626Z,11.13
2019-03-09T13:00:53.956Z,10.43
2019-03-09T13:03:23.987Z,11.47
2019-03-09T13:05:54.031Z,8.83
2019-03-09T13:08:24.021Z,9.90
2019-03-09T13:10:55.855Z,9.00
2019-03-09T13:13:25.786Z,10.10
2019-03-09T13:15:55.947Z,9.13
2019-03-09T13:18:26.086Z,8.43
2019-03-09T13:20:56.101Z,10.93
2019-03-09T13:23:26.317Z,7.63
2019-03-09T13:25:56.433Z,9.53
2019-03-09T13:28:26.357Z,10.87
2019-03-09T13:30:56.323Z,10.10
2019-03-09T13:33:26.401Z,7.60
2019-03-09T13:35:57.474Z,8.03
2019-03-09T13:38:27.722Z,7.53
2019-03-09T13:40:57.647Z,7.97
2019-03-09T13:43:27.738Z,7.40
2019-03-09T13:45:57.746Z,6.47
2019-03-09T13:48:27.710Z,7.80
2019-03-09T13:50:57.664Z,7.77
2019-03-09T13:53:27.651Z,8.13
2019-03-09T13:55:57.732Z,9.93
2019-03-09T13:58:27.788Z,8.07
2019-03-09T14:00:57.706Z,7.93
2019-03-09T14:03:27.747Z,8.17
2019-03-09T14:05:57.731Z,8.80
2019-03-09T14:08:27.665Z,7.67
2019-03-09T14:10:57.684Z,7.37
2019-03-09T14:13:27.718Z,8.17
2019-03-09T14:15:57.654Z,6.43
2019-03-09T14:18:27.709Z,8.57
2019-03-09T14:20:57.797Z,8.07
2019-03-09T14:23:27.788Z,7.27
2019-03-09T14:25:57.770Z,7.63
2019-03-09T14:28:27.785Z,6.50
2019-03-09T14:30:57.936Z,7.83
2019-03-09T14:33:28.913Z,6.90
2019-03-09T14:35:59.227Z,6.90
2019-03-09T14:38:29.246Z,7.77
2019-03-09T14:40:59.308Z,6.93
2019-03-09T14:43:29.307Z,9.40
2019-03-09T14:45:59.187Z,9.50
2019-03-09T14:48:29.210Z,5.30
2019-03-09T14:50:59.163Z,7.33
2019-03-09T14:53:29.258Z,6.43
2019-03-09T14:55:59.232Z,9.90
2019-03-09T14:58:29.187Z,6.70
2019-03-09T15:00:59.082Z,7.00
2019-03-09T15:03:29.105Z,7.57
2019-03-09T15:05:59.128Z,8.50
2019-03-09T15:08:29.041Z,6.90
2019-03-09T15:10:59.212Z,9.20
2019-03-09T15:13:29.351Z,7.67
2019-03-09T15:15:59.279Z,6.53
2019-03-09T15:18:29.358Z,8.97
2019-03-09T15:20:59.372Z,7.30
2019-03-09T15:23:29.297Z,7.97
2019-03-09T15:25:59.412Z,7.37
2019-03-09T15:28:29.491Z,6.70
2019-03-09T15:30:59.423Z,7.20
2019-03-09T15:33:29.321Z,7.70
2019-03-09T15:35:59.298Z,8.07
2019-03-09T15:38:29.279Z,6.17
2019-03-09T15:40:59.310Z,6.50
2019-03-09T15:43:29.314Z,7.70
2019-03-09T15:45:59.325Z,6.63
2019-03-09T15:48:29.299Z,8.47
2019-03-09T15:50:59.360Z,8.40
2019-03-09T15:53:29.272Z,9.07
2019-03-09T15:55:59.324Z,5.07
2019-03-09T15:58:29.341Z,6.63
2019-03-09T16:00:59.246Z,7.53
2019-03-09T16:03:29.266Z,6.27
2019-03-09T16:05:59.403Z,5.97
2019-03-09T16:08:29.538Z,7.17
2019-03-09T16:10:59.437Z,6.07
2019-03-09T16:13:29.513Z,5.97
2019-03-09T16:15:59.394Z,6.77
2019-03-09T16:18:29.483Z,5.87
2019-03-09T16:20:59.481Z,6.23
2019-03-09T16:23:29.393Z,7.40
2019-03-09T16:25:59.495Z,7.63
2019-03-09T16:28:29.708Z,5.30
2019-03-09T16:30:59.628Z,5.07
2019-03-09T16:33:29.521Z,7.00
2019-03-09T16:35:59.548Z,4.77
2019-03-09T16:38:29.692Z,4.20
2019-03-09T16:40:59.780Z,5.70
2019-03-09T16:43:29.783Z,7.60
2019-03-09T16:45:59.843Z,4.37
2019-03-09T16:48:29.894Z,5.77
2019-03-09T16:50:59.972Z,6.53
2019-03-09T16:53:29.917Z,5.70
2019-03-09T16:55:59.976Z,5.70
2019-03-09T16:58:29.934Z,8.27
2019-03-09T17:00:59.865Z,6.10
2019-03-09T17:03:29.968Z,6.23
2019-03-09T17:05:59.886Z,8.70
2019-03-09T17:08:29.833Z,5.80
2019-03-09T17:10:59.921Z,5.77
2019-03-09T17:13:29.939Z,6.00
2019-03-09T17:15:59.961Z,6.80
2019-03-09T17:18:30.030Z,6.63
2019-03-09T17:21:00.112Z,5.10
2019-03-09T17:23:30.122Z,6.47
2019-03-09T17:26:00.084Z,5.83
2019-03-09T17:28:29.990Z,6.93
2019-03-09T17:30:59.990Z,8.93
2019-03-09T17:33:29.910Z,7.53
2019-03-09T17:35:59.850Z,5.90
2019-03-09T17:38:29.996Z,4.60
2019-03-09T17:40:59.923Z,9.17
2019-03-09T17:43:29.838Z,6.00
2019-03-09T17:45:59.821Z,4.90
2019-03-09T17:48:29.754Z,6.77
2019-03-09T17:50:59.664Z,7.97
2019-03-09T17:53:29.663Z,5.20
2019-03-09T17:55:59.591Z,5.97
2019-03-09T17:58:29.596Z,4.33
2019-03-09T18:00:59.580Z,6.40
2019-03-09T18:03:29.626Z,5.53
2019-03-09T18:05:59.664Z,4.67
2019-03-09T18:08:29.601Z,6.10
2019-03-09T18:11:02.395Z,5.70
2019-03-09T18:13:32.483Z,3.83
2019-03-09T18:16:02.541Z,5.13
2019-03-09T18:18:32.509Z,7.07
2019-03-09T18:21:02.675Z,6.40
2019-03-09T18:23:32.569Z,6.97
2019-03-09T18:26:02.622Z,6.17
2019-03-09T18:28:32.582Z,6.27
2019-03-09T18:31:02.528Z,7.17
2019-03-09T18:33:32.602Z,5.27
2019-03-09T18:36:02.935Z,6.67
2019-03-09T18:38:32.982Z,7.23
2019-03-09T18:41:02.895Z,6.63
2019-03-09T18:43:33.119Z,5.67
2019-03-09T18:46:03.093Z,5.17
2019-03-09T18:48:33.015Z,4.67
2019-03-09T18:51:03.056Z,5.43
2019-03-09T18:53:33.135Z,7.43
2019-03-09T18:56:03.179Z,7.07
2019-03-09T18:58:33.098Z,4.90
2019-03-09T19:01:03.064Z,4.93
2019-03-09T19:03:33.082Z,7.27
2019-03-09T19:06:02.998Z,4.53
2019-03-09T19:08:33.034Z,6.73
2019-03-09T19:11:03.244Z,5.73
2019-03-09T19:13:33.198Z,4.03
2019-03-09T19:16:03.135Z,6.13
2019-03-09T19:18:33.165Z,4.27
2019-03-09T19:21:03.073Z,5.10
2019-03-09T19:23:33.058Z,6.43
2019-03-09T19:26:03.454Z,4.07
2019-03-09T19:28:33.665Z,7.17
2019-03-09T19:31:03.944Z,4.90
2019-03-09T19:33:33.910Z,5.20
2019-03-09T19:36:04.150Z,6.13
2019-03-09T19:38:34.271Z,7.27
2019-03-09T19:41:06.108Z,7.83
2019-03-09T19:43:37.856Z,5.70
2019-03-09T19:46:08.874Z,6.20
2019-03-09T19:48:40.807Z,7.30
2019-03-09T19:51:12.214Z,6.83
2019-03-09T19:53:42.542Z,3.70
2019-03-09T19:56:13.187Z,7.13
2019-03-09T19:58:45.464Z,4.63
2019-03-09T20:01:18.478Z,6.13
2019-03-09T20:03:50.818Z,3.97
2019-03-09T20:06:23.030Z,5.60
2019-03-09T20:08:54.911Z,6.50
2019-03-09T20:11:27.150Z,5.47
2019-03-09T20:13:59.325Z,4.53
2019-03-09T20:16:31.541Z,6.50
2019-03-09T20:19:03.690Z,4.67
2019-03-09T20:21:37.014Z,5.90
2019-03-09T20:24:08.844Z,5.80
2019-03-09T20:26:40.519Z,4.20
2019-03-09T20:29:11.399Z,6.20
2019-03-09T20:31:42.124Z,4.10
2019-03-09T20:34:13.164Z,6.13
2019-03-09T20:36:45.239Z,5.37
2019-03-09T20:39:17.417Z,3.77
2019-03-09T20:41:49.614Z,5.67
2019-03-09T20:44:21.255Z,4.93
2019-03-09T20:46:52.268Z,8.10
2019-03-09T20:49:23.236Z,4.13
2019-03-09T20:51:54.246Z,5.23
2019-03-09T20:54:26.356Z,4.97
2019-03-09T20:56:58.486Z,6.07
2019-03-09T20:59:30.397Z,7.53
2019-03-09T21:02:01.881Z,6.43
2019-03-09T21:04:32.893Z,7.27
2019-03-09T21:07:04.745Z,5.27
2019-03-09T21:09:36.198Z,7.93
2019-03-09T21:12:07.749Z,4.87
2019-03-09T21:14:39.669Z,5.27
2019-03-09T21:17:11.784Z,4.87
2019-03-09T21:19:43.330Z,5.50
2019-03-09T21:22:16.203Z,4.77
2019-03-09T21:24:47.466Z,6.17
2019-03-09T21:27:18.207Z,5.43
2019-03-09T21:29:48.716Z,4.13
2019-03-09T21:32:20.284Z,5.27
2019-03-09T21:34:51.039Z,4.47
2019-03-09T21:37:22.118Z,5.63
2019-03-09T21:39:52.754Z,6.87
2019-03-09T21:42:23.190Z,5.30
2019-03-09T21:44:53.501Z,7.40
2019-03-09T21:47:23.772Z,4.83
2019-03-09T21:49:53.915Z,6.03
2019-03-09T21:52:23.865Z,6.87
2019-03-09T21:54:53.901Z,6.63
2019-03-09T21:57:23.875Z,7.30
2019-03-09T21:59:54.021Z,7.03
2019-03-09T22:02:24.164Z,8.23
2019-03-09T22:04:54.178Z,6.93
2019-03-09T22:07:24.187Z,6.57
2019-03-09T22:09:54.128Z,8.33
2019-03-09T22:12:24.026Z,6.33
2019-03-09T22:14:54.132Z,6.33
2019-03-09T22:17:24.128Z,5.37
2019-03-09T22:19:54.130Z,7.10
2019-03-09T22:22:24.076Z,4.90
2019-03-09T22:24:53.985Z,5.20
2019-03-09T22:27:23.969Z,7.40
2019-03-09T22:29:53.944Z,5.80
2019-03-09T22:32:23.821Z,6.60
2019-03-09T22:34:53.904Z,4.07
2019-03-09T22:37:23.846Z,5.60
2019-03-09T22:39:53.902Z,6.07
2019-03-09T22:42:23.972Z,3.73
2019-03-09T22:44:53.962Z,4.03
2019-03-09T22:47:24.325Z,5.67
2019-03-09T22:49:54.345Z,6.10
2019-03-09T22:52:24.306Z,5.73
2019-03-09T22:54:54.398Z,5.23
2019-03-09T22:57:24.318Z,4.37
2019-03-09T22:59:54.258Z,5.10
2019-03-09T23:02:24.486Z,5.90
2019-03-09T23:04:54.561Z,4.00
2019-03-09T23:07:24.574Z,8.17
2019-03-09T23:09:54.632Z,4.73
2019-03-09T23:12:24.782Z,4.87
2019-03-09T23:14:54.845Z,4.63
2019-03-09T23:17:24.875Z,3.47
2019-03-09T23:19:54.786Z,4.30
2019-03-09T23:22:24.889Z,4.60
2019-03-09T23:24:54.802Z,5.80
2019-03-09T23:27:24.705Z,5.07
2019-03-09T23:29:54.807Z,4.70
2019-03-09T23:32:24.976Z,4.50
2019-03-09T23:34:54.895Z,5.07
2019-03-09T23:37:25.105Z,5.67
2019-03-09T23:39:55.100Z,6.73
2019-03-09T23:42:25.089Z,5.07
2019-03-09T23:44:56.240Z,4.13
2019-03-09T23:47:26.315Z,5.60
2019-03-09T23:49:56.443Z,7.07
2019-03-09T23:52:26.609Z,7.57
2019-03-09T23:54:56.686Z,7.60
2019-03-09T23:57:26.870Z,5.03
2019-03-09T23:59:56.983Z,6.40
